sensor_id;sensor_type;location;lat;lon;timestamp;P1;durP1;ratioP1;P2;durP2;ratioP2
151;SDS011;68;48.792;9.164;2023-03-31T00:00:56;8.15;;;2.80;;
151;SDS011;68;48.792;9.164;2023-03-31T00:03:24;5.18;;;3.28;;
151;SDS011;68;48.792;9.164;2023-03-31T00:05:53;10.70;;;3.50;;
151;SDS011;68;48.792;9.164;2023-03-31T00:08:22;9.07;;;3.60;;
151;SDS011;68;48.792;9.164;2023-03-31T00:10:49;5.82;;;3.10;;
151;SDS011;68;48.792;9.164;2023-03-31T00:13:17;7.50;;;3.47;;
151;SDS011;68;48.792;9.164;2023-03-31T00:15:44;9.30;;;3.80;;
151;SDS011;68;48.792;9.164;2023-03-31T00:18:10;10.57;;;4.32;;
151;SDS011;68;48.792;9.164;2023-03-31T00:20:37;8.75;;;3.85;;
151;SDS011;68;48.792;9.164;2023-03-31T00:23:07;7.50;;;3.25;;
151;SDS011;68;48.792;9.164;2023-03-31T00:25:35;7.75;;;3.22;;
151;SDS011;68;48.792;9.164;2023-03-31T00:28:05;8.32;;;3.55;;
151;SDS011;68;48.792;9.164;2023-03-31T00:30:33;6.28;;;3.00;;
151;SDS011;68;48.792;9.164;2023-03-31T00:33:00;5.55;;;3.40;;
151;SDS011;68;48.792;9.164;2023-03-31T00:35:27;9.40;;;3.15;;
151;SDS011;68;48.792;9.164;2023-03-31T00:37:54;9.98;;;3.63;;
151;SDS011;68;48.792;9.164;2023-03-31T00:40:21;8.10;;;3.30;;
151;SDS011;68;48.792;9.164;2023-03-31T00:42:48;7.22;;;3.63;;
151;SDS011;68;48.792;9.164;2023-03-31T00:45:25;15.40;;;3.58;;
151;SDS011;68;48.792;9.164;2023-03-31T00:47:59;14.88;;;4.10;;
151;SDS011;68;48.792;9.164;2023-03-31T00:50:31;7.75;;;3.30;;
151;SDS011;68;48.792;9.164;2023-03-31T00:53:01;13.88;;;5.18;;
151;SDS011;68;48.792;9.164;2023-03-31T00:55:33;7.25;;;3.60;;
151;SDS011;68;48.792;9.164;2023-03-31T00:58:04;10.52;;;4.03;;
151;SDS011;68;48.792;9.164;2023-03-31T01:00:33;10.07;;;3.78;;
151;SDS011;68;48.792;9.164;2023-03-31T01:03:01;8.80;;;3.53;;
151;SDS011;68;48.792;9.164;2023-03-31T01:05:32;9.63;;;3.55;;
151;SDS011;68;48.792;9.164;2023-03-31T01:08:01;11.68;;;3.83;;
151;SDS011;68;48.792;9.164;2023-03-31T01:10:32;10.25;;;3.92;;
151;SDS011;68;48.792;9.164;2023-03-31T01:13:05;9.52;;;4.18;;
151;SDS011;68;48.792;9.164;2023-03-31T01:15:34;9.02;;;3.90;;
151;SDS011;68;48.792;9.164;2023-03-31T01:18:03;9.90;;;3.25;;
151;SDS011;68;48.792;9.164;2023-03-31T01:20:32;7.90;;;3.33;;
151;SDS011;68;48.792;9.164;2023-03-31T01:23:19;10.32;;;4.70;;
151;SDS011;68;48.792;9.164;2023-03-31T01:29:13;7.57;;;3.50;;
151;SDS011;68;48.792;9.164;2023-03-31T01:35:09;9.88;;;4.55;;
151;SDS011;68;48.792;9.164;2023-03-31T01:38:03;9.88;;;3.67;;
151;SDS011;68;48.792;9.164;2023-03-31T01:41:10;6.22;;;3.63;;
151;SDS011;68;48.792;9.164;2023-03-31T01:43:47;5.63;;;3.50;;
151;SDS011;68;48.792;9.164;2023-03-31T01:46:25;8.63;;;3.47;;
151;SDS011;68;48.792;9.164;2023-03-31T01:48:58;6.57;;;3.15;;
151;SDS011;68;48.792;9.164;2023-03-31T01:51:33;6.50;;;3.30;;
151;SDS011;68;48.792;9.164;2023-03-31T01:54:07;12.93;;;4.10;;
151;SDS011;68;48.792;9.164;2023-03-31T01:56:42;8.05;;;3.83;;
151;SDS011;68;48.792;9.164;2023-03-31T01:59:14;8.18;;;3.80;;
151;SDS011;68;48.792;9.164;2023-03-31T02:01:48;7.35;;;3.95;;
151;SDS011;68;48.792;9.164;2023-03-31T02:04:21;7.75;;;3.35;;
151;SDS011;68;48.792;9.164;2023-03-31T02:06:50;6.68;;;3.40;;
151;SDS011;68;48.792;9.164;2023-03-31T02:09:22;11.15;;;3.85;;
151;SDS011;68;48.792;9.164;2023-03-31T02:11:53;8.70;;;3.72;;
151;SDS011;68;48.792;9.164;2023-03-31T02:14:22;6.22;;;2.90;;
151;SDS011;68;48.792;9.164;2023-03-31T02:16:54;7.93;;;3.20;;
151;SDS011;68;48.792;9.164;2023-03-31T02:19:26;11.18;;;4.03;;
151;SDS011;68;48.792;9.164;2023-03-31T02:21:57;9.02;;;3.40;;
151;SDS011;68;48.792;9.164;2023-03-31T02:24:25;8.80;;;3.45;;
151;SDS011;68;48.792;9.164;2023-03-31T02:26:57;8.52;;;3.25;;
151;SDS011;68;48.792;9.164;2023-03-31T02:29:29;11.23;;;4.15;;
151;SDS011;68;48.792;9.164;2023-03-31T02:31:57;6.10;;;3.28;;
151;SDS011;68;48.792;9.164;2023-03-31T02:34:29;7.18;;;3.60;;
151;SDS011;68;48.792;9.164;2023-03-31T02:36:56;10.77;;;3.90;;
151;SDS011;68;48.792;9.164;2023-03-31T02:39:24;13.85;;;3.88;;
151;SDS011;68;48.792;9.164;2023-03-31T02:41:53;10.18;;;3.50;;
151;SDS011;68;48.792;9.164;2023-03-31T02:44:22;8.52;;;3.95;;
151;SDS011;68;48.792;9.164;2023-03-31T02:46:49;8.02;;;3.53;;
151;SDS011;68;48.792;9.164;2023-03-31T02:49:17;12.15;;;3.83;;
151;SDS011;68;48.792;9.164;2023-03-31T02:57:39;5.47;;;3.63;;
151;SDS011;68;48.792;9.164;2023-03-31T03:00:22;6.30;;;3.60;;
151;SDS011;68;48.792;9.164;2023-03-31T03:02:59;9.30;;;3.85;;
151;SDS011;68;48.792;9.164;2023-03-31T03:05:40;12.00;;;3.25;;
151;SDS011;68;48.792;9.164;2023-03-31T03:08:16;8.88;;;3.70;;
151;SDS011;68;48.792;9.164;2023-03-31T03:10:54;10.02;;;3.70;;
151;SDS011;68;48.792;9.164;2023-03-31T03:13:29;14.40;;;3.95;;
151;SDS011;68;48.792;9.164;2023-03-31T03:16:04;14.65;;;3.88;;
151;SDS011;68;48.792;9.164;2023-03-31T03:18:37;11.60;;;4.45;;
151;SDS011;68;48.792;9.164;2023-03-31T03:21:04;15.02;;;3.95;;
151;SDS011;68;48.792;9.164;2023-03-31T03:23:31;13.93;;;3.88;;
151;SDS011;68;48.792;9.164;2023-03-31T03:25:58;6.75;;;3.88;;
151;SDS011;68;48.792;9.164;2023-03-31T03:28:25;12.52;;;4.18;;
151;SDS011;68;48.792;9.164;2023-03-31T03:30:52;9.52;;;4.05;;
151;SDS011;68;48.792;9.164;2023-03-31T03:33:20;10.30;;;4.38;;
151;SDS011;68;48.792;9.164;2023-03-31T03:35:49;9.95;;;4.20;;
151;SDS011;68;48.792;9.164;2023-03-31T03:38:15;9.30;;;4.50;;
151;SDS011;68;48.792;9.164;2023-03-31T03:40:42;12.38;;;4.47;;
151;SDS011;68;48.792;9.164;2023-03-31T03:43:09;8.27;;;4.50;;
151;SDS011;68;48.792;9.164;2023-03-31T03:45:36;6.93;;;4.03;;
151;SDS011;68;48.792;9.164;2023-03-31T03:48:02;9.77;;;4.47;;
151;SDS011;68;48.792;9.164;2023-03-31T03:50:31;8.25;;;3.78;;
151;SDS011;68;48.792;9.164;2023-03-31T03:53:01;9.35;;;4.50;;
151;SDS011;68;48.792;9.164;2023-03-31T03:55:28;9.77;;;4.45;;
151;SDS011;68;48.792;9.164;2023-03-31T03:57:55;9.93;;;4.70;;
151;SDS011;68;48.792;9.164;2023-03-31T04:00:21;8.07;;;4.60;;
151;SDS011;68;48.792;9.164;2023-03-31T04:02:48;14.77;;;4.53;;
151;SDS011;68;48.792;9.164;2023-03-31T04:05:15;10.60;;;4.85;;
151;SDS011;68;48.792;9.164;2023-03-31T04:07:43;8.93;;;4.80;;
151;SDS011;68;48.792;9.164;2023-03-31T04:10:10;8.75;;;4.50;;
151;SDS011;68;48.792;9.164;2023-03-31T04:12:37;7.45;;;4.70;;
151;SDS011;68;48.792;9.164;2023-03-31T04:15:04;11.30;;;5.68;;
151;SDS011;68;48.792;9.164;2023-03-31T04:17:31;9.48;;;4.45;;
151;SDS011;68;48.792;9.164;2023-03-31T04:20:00;8.02;;;4.70;;
151;SDS011;68;48.792;9.164;2023-03-31T04:22:31;12.15;;;5.20;;
151;SDS011;68;48.792;9.164;2023-03-31T04:25:01;9.85;;;5.05;;
151;SDS011;68;48.792;9.164;2023-03-31T04:27:28;12.57;;;5.50;;
151;SDS011;68;48.792;9.164;2023-03-31T04:29:57;10.73;;;5.40;;
151;SDS011;68;48.792;9.164;2023-03-31T04:32:24;12.63;;;5.35;;
151;SDS011;68;48.792;9.164;2023-03-31T04:34:52;9.77;;;6.18;;
151;SDS011;68;48.792;9.164;2023-03-31T04:37:26;11.80;;;5.53;;
151;SDS011;68;48.792;9.164;2023-03-31T04:39:58;13.38;;;6.03;;
151;SDS011;68;48.792;9.164;2023-03-31T04:42:33;10.77;;;5.72;;
151;SDS011;68;48.792;9.164;2023-03-31T04:45:00;12.63;;;6.47;;
151;SDS011;68;48.792;9.164;2023-03-31T04:47:27;10.25;;;5.95;;
151;SDS011;68;48.792;9.164;2023-03-31T04:49:53;11.23;;;5.97;;
151;SDS011;68;48.792;9.164;2023-03-31T04:52:20;10.57;;;5.40;;
151;SDS011;68;48.792;9.164;2023-03-31T04:54:47;12.75;;;5.90;;
151;SDS011;68;48.792;9.164;2023-03-31T04:57:15;14.35;;;6.35;;
151;SDS011;68;48.792;9.164;2023-03-31T04:59:42;9.48;;;5.82;;
151;SDS011;68;48.792;9.164;2023-03-31T05:02:09;11.35;;;6.10;;
151;SDS011;68;48.792;9.164;2023-03-31T05:04:35;10.80;;;6.07;;
151;SDS011;68;48.792;9.164;2023-03-31T05:07:02;11.13;;;6.10;;
151;SDS011;68;48.792;9.164;2023-03-31T05:09:29;11.52;;;6.03;;
151;SDS011;68;48.792;9.164;2023-03-31T05:11:56;12.23;;;5.93;;
151;SDS011;68;48.792;9.164;2023-03-31T05:14:24;13.70;;;6.32;;
151;SDS011;68;48.792;9.164;2023-03-31T05:16:51;16.05;;;6.10;;
151;SDS011;68;48.792;9.164;2023-03-31T05:19:18;14.38;;;6.90;;
151;SDS011;68;48.792;9.164;2023-03-31T05:21:44;12.90;;;6.68;;
151;SDS011;68;48.792;9.164;2023-03-31T05:24:12;16.58;;;7.60;;
151;SDS011;68;48.792;9.164;2023-03-31T05:26:39;12.63;;;7.35;;
151;SDS011;68;48.792;9.164;2023-03-31T05:29:08;14.20;;;7.43;;
151;SDS011;68;48.792;9.164;2023-03-31T05:31:36;17.40;;;6.60;;
151;SDS011;68;48.792;9.164;2023-03-31T05:34:03;11.45;;;6.97;;
151;SDS011;68;48.792;9.164;2023-03-31T05:36:30;14.33;;;7.40;;
151;SDS011;68;48.792;9.164;2023-03-31T05:38:57;10.98;;;6.70;;
151;SDS011;68;48.792;9.164;2023-03-31T05:41:24;15.65;;;7.00;;
151;SDS011;68;48.792;9.164;2023-03-31T05:43:50;14.30;;;7.05;;
151;SDS011;68;48.792;9.164;2023-03-31T05:46:17;17.38;;;8.38;;
151;SDS011;68;48.792;9.164;2023-03-31T05:48:45;15.20;;;7.05;;
151;SDS011;68;48.792;9.164;2023-03-31T05:51:12;19.08;;;8.18;;
151;SDS011;68;48.792;9.164;2023-03-31T05:53:39;22.83;;;8.73;;
151;SDS011;68;48.792;9.164;2023-03-31T05:56:06;13.98;;;7.85;;
151;SDS011;68;48.792;9.164;2023-03-31T05:58:33;11.48;;;7.40;;
151;SDS011;68;48.792;9.164;2023-03-31T06:01:01;14.40;;;8.40;;
151;SDS011;68;48.792;9.164;2023-03-31T06:03:30;11.70;;;7.60;;
151;SDS011;68;48.792;9.164;2023-03-31T06:05:59;21.30;;;11.02;;
151;SDS011;68;48.792;9.164;2023-03-31T06:08:26;15.35;;;7.97;;
151;SDS011;68;48.792;9.164;2023-03-31T06:10:53;17.80;;;8.65;;
151;SDS011;68;48.792;9.164;2023-03-31T06:13:20;14.02;;;8.75;;
151;SDS011;68;48.792;9.164;2023-03-31T06:15:51;21.63;;;8.95;;
151;SDS011;68;48.792;9.164;2023-03-31T06:18:19;19.50;;;8.88;;
151;SDS011;68;48.792;9.164;2023-03-31T06:20:45;18.05;;;8.95;;
151;SDS011;68;48.792;9.164;2023-03-31T06:23:14;15.70;;;8.90;;
151;SDS011;68;48.792;9.164;2023-03-31T06:25:40;15.23;;;8.30;;
151;SDS011;68;48.792;9.164;2023-03-31T06:28:07;14.35;;;8.70;;
151;SDS011;68;48.792;9.164;2023-03-31T06:30:34;15.90;;;8.75;;
151;SDS011;68;48.792;9.164;2023-03-31T06:33:01;17.50;;;9.27;;
151;SDS011;68;48.792;9.164;2023-03-31T06:35:28;17.15;;;9.75;;
151;SDS011;68;48.792;9.164;2023-03-31T06:37:55;15.73;;;8.75;;
151;SDS011;68;48.792;9.164;2023-03-31T06:40:23;16.15;;;8.25;;
151;SDS011;68;48.792;9.164;2023-03-31T06:42:50;21.17;;;9.75;;
151;SDS011;68;48.792;9.164;2023-03-31T06:45:17;17.98;;;9.95;;
151;SDS011;68;48.792;9.164;2023-03-31T06:47:44;20.33;;;10.23;;
151;SDS011;68;48.792;9.164;2023-03-31T06:50:11;14.90;;;9.45;;
151;SDS011;68;48.792;9.164;2023-03-31T06:52:38;20.35;;;10.40;;
151;SDS011;68;48.792;9.164;2023-03-31T06:55:06;19.17;;;10.57;;
151;SDS011;68;48.792;9.164;2023-03-31T06:57:35;23.08;;;11.50;;
151;SDS011;68;48.792;9.164;2023-03-31T07:00:02;20.25;;;11.55;;
151;SDS011;68;48.792;9.164;2023-03-31T07:02:31;24.65;;;13.50;;
151;SDS011;68;48.792;9.164;2023-03-31T07:04:58;23.30;;;11.65;;
151;SDS011;68;48.792;9.164;2023-03-31T07:07:25;20.33;;;10.70;;
151;SDS011;68;48.792;9.164;2023-03-31T07:09:51;19.67;;;10.30;;
151;SDS011;68;48.792;9.164;2023-03-31T07:12:18;26.42;;;11.57;;
151;SDS011;68;48.792;9.164;2023-03-31T07:14:47;18.92;;;11.23;;
151;SDS011;68;48.792;9.164;2023-03-31T07:17:13;15.57;;;9.70;;
151;SDS011;68;48.792;9.164;2023-03-31T07:19:40;16.38;;;9.05;;
151;SDS011;68;48.792;9.164;2023-03-31T07:22:11;12.27;;;8.50;;
151;SDS011;68;48.792;9.164;2023-03-31T07:24:38;19.50;;;9.48;;
151;SDS011;68;48.792;9.164;2023-03-31T07:27:05;15.07;;;8.25;;
151;SDS011;68;48.792;9.164;2023-03-31T07:29:32;12.25;;;7.18;;
151;SDS011;68;48.792;9.164;2023-03-31T07:32:00;14.00;;;7.53;;
151;SDS011;68;48.792;9.164;2023-03-31T07:34:27;11.45;;;7.65;;
151;SDS011;68;48.792;9.164;2023-03-31T07:36:54;9.88;;;6.57;;
151;SDS011;68;48.792;9.164;2023-03-31T07:39:21;12.55;;;6.43;;
151;SDS011;68;48.792;9.164;2023-03-31T07:41:48;11.68;;;5.30;;
151;SDS011;68;48.792;9.164;2023-03-31T07:44:14;8.48;;;5.65;;
151;SDS011;68;48.792;9.164;2023-03-31T07:46:42;9.23;;;5.63;;
151;SDS011;68;48.792;9.164;2023-03-31T07:49:11;8.95;;;5.15;;
151;SDS011;68;48.792;9.164;2023-03-31T07:51:40;7.07;;;5.35;;
151;SDS011;68;48.792;9.164;2023-03-31T07:54:07;4.88;;;3.30;;
151;SDS011;68;48.792;9.164;2023-03-31T07:56:33;5.45;;;3.53;;
151;SDS011;68;48.792;9.164;2023-03-31T07:59:00;6.90;;;3.88;;
151;SDS011;68;48.792;9.164;2023-03-31T08:01:27;6.55;;;3.58;;
151;SDS011;68;48.792;9.164;2023-03-31T08:03:54;4.97;;;3.40;;
151;SDS011;68;48.792;9.164;2023-03-31T08:06:23;4.45;;;3.08;;
151;SDS011;68;48.792;9.164;2023-03-31T08:08:50;9.23;;;3.50;;
151;SDS011;68;48.792;9.164;2023-03-31T08:11:17;3.80;;;2.60;;
151;SDS011;68;48.792;9.164;2023-03-31T08:13:45;3.83;;;2.70;;
151;SDS011;68;48.792;9.164;2023-03-31T08:16:12;3.97;;;3.00;;
151;SDS011;68;48.792;9.164;2023-03-31T08:18:38;4.78;;;2.97;;
151;SDS011;68;48.792;9.164;2023-03-31T08:21:05;2.80;;;2.60;;
151;SDS011;68;48.792;9.164;2023-03-31T08:23:35;3.63;;;2.50;;
151;SDS011;68;48.792;9.164;2023-03-31T08:26:09;2.50;;;2.30;;
151;SDS011;68;48.792;9.164;2023-03-31T08:28:37;2.90;;;2.60;;
151;SDS011;68;48.792;9.164;2023-03-31T08:31:04;4.32;;;2.70;;
151;SDS011;68;48.792;9.164;2023-03-31T08:33:32;4.13;;;2.67;;
151;SDS011;68;48.792;9.164;2023-03-31T08:36:03;3.97;;;2.58;;
151;SDS011;68;48.792;9.164;2023-03-31T08:38:32;4.95;;;2.47;;
151;SDS011;68;48.792;9.164;2023-03-31T08:41:01;3.85;;;2.50;;
151;SDS011;68;48.792;9.164;2023-03-31T08:43:31;4.03;;;2.80;;
151;SDS011;68;48.792;9.164;2023-03-31T08:46:01;6.05;;;2.80;;
151;SDS011;68;48.792;9.164;2023-03-31T08:48:31;4.93;;;2.70;;
151;SDS011;68;48.792;9.164;2023-03-31T08:51:02;4.65;;;2.70;;
151;SDS011;68;48.792;9.164;2023-03-31T08:53:33;9.45;;;4.72;;
151;SDS011;68;48.792;9.164;2023-03-31T08:56:06;5.38;;;2.90;;
151;SDS011;68;48.792;9.164;2023-03-31T08:58:41;9.52;;;3.22;;
151;SDS011;68;48.792;9.164;2023-03-31T09:01:12;6.10;;;2.55;;
151;SDS011;68;48.792;9.164;2023-03-31T09:03:47;6.32;;;2.83;;
151;SDS011;68;48.792;9.164;2023-03-31T09:06:22;5.53;;;2.70;;
151;SDS011;68;48.792;9.164;2023-03-31T09:08:57;7.47;;;2.80;;
151;SDS011;68;48.792;9.164;2023-03-31T09:11:29;4.63;;;2.53;;
151;SDS011;68;48.792;9.164;2023-03-31T09:14:06;4.88;;;2.88;;
151;SDS011;68;48.792;9.164;2023-03-31T09:16:51;8.15;;;3.05;;
151;SDS011;68;48.792;9.164;2023-03-31T09:19:26;3.63;;;2.50;;
151;SDS011;68;48.792;9.164;2023-03-31T09:21:58;4.22;;;2.30;;
151;SDS011;68;48.792;9.164;2023-03-31T09:24:28;6.88;;;2.40;;
151;SDS011;68;48.792;9.164;2023-03-31T09:26:59;5.30;;;2.20;;
151;SDS011;68;48.792;9.164;2023-03-31T09:29:28;5.38;;;2.70;;
151;SDS011;68;48.792;9.164;2023-03-31T09:32:00;5.88;;;2.50;;
151;SDS011;68;48.792;9.164;2023-03-31T09:34:32;3.90;;;2.42;;
151;SDS011;68;48.792;9.164;2023-03-31T09:37:00;6.65;;;2.70;;
151;SDS011;68;48.792;9.164;2023-03-31T09:39:28;3.65;;;2.28;;
151;SDS011;68;48.792;9.164;2023-03-31T09:41:55;3.78;;;2.33;;
151;SDS011;68;48.792;9.164;2023-03-31T09:44:23;4.70;;;2.70;;
151;SDS011;68;48.792;9.164;2023-03-31T09:46:53;5.05;;;2.50;;
151;SDS011;68;48.792;9.164;2023-03-31T09:49:20;8.18;;;3.17;;
151;SDS011;68;48.792;9.164;2023-03-31T09:51:56;5.10;;;2.95;;
151;SDS011;68;48.792;9.164;2023-03-31T09:54:30;5.20;;;2.65;;
151;SDS011;68;48.792;9.164;2023-03-31T09:57:02;3.63;;;2.20;;
151;SDS011;68;48.792;9.164;2023-03-31T09:59:39;11.57;;;3.05;;
151;SDS011;68;48.792;9.164;2023-03-31T10:02:16;6.40;;;2.53;;
151;SDS011;68;48.792;9.164;2023-03-31T10:05:02;6.40;;;2.60;;
151;SDS011;68;48.792;9.164;2023-03-31T10:07:30;5.38;;;2.58;;
151;SDS011;68;48.792;9.164;2023-03-31T10:09:59;6.13;;;2.70;;
151;SDS011;68;48.792;9.164;2023-03-31T10:12:28;6.78;;;3.17;;
151;SDS011;68;48.792;9.164;2023-03-31T10:15:01;5.57;;;2.38;;
151;SDS011;68;48.792;9.164;2023-03-31T10:17:41;6.88;;;2.47;;
151;SDS011;68;48.792;9.164;2023-03-31T10:20:16;9.10;;;2.77;;
151;SDS011;68;48.792;9.164;2023-03-31T10:22:46;7.73;;;2.30;;
151;SDS011;68;48.792;9.164;2023-03-31T10:25:15;5.50;;;2.58;;
151;SDS011;68;48.792;9.164;2023-03-31T10:27:44;7.80;;;2.83;;
151;SDS011;68;48.792;9.164;2023-03-31T10:30:17;4.30;;;2.60;;
151;SDS011;68;48.792;9.164;2023-03-31T10:32:48;6.57;;;2.70;;
151;SDS011;68;48.792;9.164;2023-03-31T10:35:20;7.60;;;2.60;;
151;SDS011;68;48.792;9.164;2023-03-31T10:37:50;6.63;;;2.97;;
151;SDS011;68;48.792;9.164;2023-03-31T10:40:24;12.00;;;3.50;;
151;SDS011;68;48.792;9.164;2023-03-31T10:42:59;4.20;;;2.40;;
151;SDS011;68;48.792;9.164;2023-03-31T10:45:30;6.77;;;2.70;;
151;SDS011;68;48.792;9.164;2023-03-31T10:48:02;7.33;;;2.67;;
151;SDS011;68;48.792;9.164;2023-03-31T10:50:30;6.73;;;2.60;;
151;SDS011;68;48.792;9.164;2023-03-31T10:53:02;6.83;;;2.53;;
151;SDS011;68;48.792;9.164;2023-03-31T10:55:34;8.83;;;2.73;;
151;SDS011;68;48.792;9.164;2023-03-31T10:58:07;5.87;;;2.53;;
151;SDS011;68;48.792;9.164;2023-03-31T11:00:45;6.80;;;2.40;;
151;SDS011;68;48.792;9.164;2023-03-31T11:06:21;7.70;;;2.70;;
151;SDS011;68;48.792;9.164;2023-03-31T11:08:56;7.15;;;2.40;;
151;SDS011;68;48.792;9.164;2023-03-31T11:14:39;5.25;;;2.20;;
151;SDS011;68;48.792;9.164;2023-03-31T11:17:23;7.95;;;2.45;;
151;SDS011;68;48.792;9.164;2023-03-31T11:19:57;4.65;;;2.05;;
151;SDS011;68;48.792;9.164;2023-03-31T11:22:33;10.32;;;2.85;;
151;SDS011;68;48.792;9.164;2023-03-31T11:25:09;3.78;;;2.08;;
151;SDS011;68;48.792;9.164;2023-03-31T11:28:04;9.93;;;2.00;;
151;SDS011;68;48.792;9.164;2023-03-31T11:30:47;4.00;;;1.80;;
151;SDS011;68;48.792;9.164;2023-03-31T11:33:24;4.40;;;1.98;;
151;SDS011;68;48.792;9.164;2023-03-31T11:36:14;4.15;;;1.80;;
151;SDS011;68;48.792;9.164;2023-03-31T11:39:08;4.97;;;2.33;;
151;SDS011;68;48.792;9.164;2023-03-31T11:41:46;4.40;;;1.90;;
151;SDS011;68;48.792;9.164;2023-03-31T11:44:17;3.00;;;1.90;;
151;SDS011;68;48.792;9.164;2023-03-31T11:46:46;5.22;;;2.05;;
151;SDS011;68;48.792;9.164;2023-03-31T11:49:18;4.53;;;1.88;;
151;SDS011;68;48.792;9.164;2023-03-31T11:51:49;2.28;;;1.60;;
151;SDS011;68;48.792;9.164;2023-03-31T11:54:22;2.40;;;2.00;;
151;SDS011;68;48.792;9.164;2023-03-31T11:56:53;3.22;;;1.70;;
151;SDS011;68;48.792;9.164;2023-03-31T11:59:23;3.65;;;1.80;;
151;SDS011;68;48.792;9.164;2023-03-31T12:01:55;2.40;;;1.70;;
151;SDS011;68;48.792;9.164;2023-03-31T12:04:29;1.73;;;1.60;;
151;SDS011;68;48.792;9.164;2023-03-31T12:07:02;2.67;;;1.73;;
151;SDS011;68;48.792;9.164;2023-03-31T12:09:34;1.90;;;1.60;;
151;SDS011;68;48.792;9.164;2023-03-31T12:12:09;2.55;;;1.77;;
151;SDS011;68;48.792;9.164;2023-03-31T12:14:45;2.00;;;1.60;;
151;SDS011;68;48.792;9.164;2023-03-31T12:17:15;2.10;;;1.70;;
151;SDS011;68;48.792;9.164;2023-03-31T12:19:46;2.55;;;1.60;;
151;SDS011;68;48.792;9.164;2023-03-31T12:22:16;3.95;;;2.72;;
151;SDS011;68;48.792;9.164;2023-03-31T12:24:47;2.35;;;1.70;;
151;SDS011;68;48.792;9.164;2023-03-31T12:27:15;3.22;;;1.73;;
151;SDS011;68;48.792;9.164;2023-03-31T12:29:45;2.88;;;1.85;;
151;SDS011;68;48.792;9.164;2023-03-31T12:32:19;4.40;;;1.80;;
151;SDS011;68;48.792;9.164;2023-03-31T12:34:50;3.90;;;1.80;;
151;SDS011;68;48.792;9.164;2023-03-31T12:37:25;3.75;;;1.80;;
151;SDS011;68;48.792;9.164;2023-03-31T12:40:23;1.67;;;1.60;;
151;SDS011;68;48.792;9.164;2023-03-31T12:43:07;5.13;;;1.80;;
151;SDS011;68;48.792;9.164;2023-03-31T12:45:47;3.58;;;1.60;;
151;SDS011;68;48.792;9.164;2023-03-31T12:48:35;4.15;;;2.03;;
151;SDS011;68;48.792;9.164;2023-03-31T12:51:19;1.80;;;1.50;;
151;SDS011;68;48.792;9.164;2023-03-31T12:54:00;3.15;;;2.10;;
151;SDS011;68;48.792;9.164;2023-03-31T12:57:02;2.37;;;1.70;;
151;SDS011;68;48.792;9.164;2023-03-31T12:59:39;2.58;;;1.60;;
151;SDS011;68;48.792;9.164;2023-03-31T13:02:20;3.80;;;1.63;;
151;SDS011;68;48.792;9.164;2023-03-31T13:04:51;6.10;;;1.70;;
151;SDS011;68;48.792;9.164;2023-03-31T13:07:38;6.83;;;2.13;;
151;SDS011;68;48.792;9.164;2023-03-31T13:10:25;3.10;;;1.85;;
151;SDS011;68;48.792;9.164;2023-03-31T13:12:55;3.88;;;1.90;;
151;SDS011;68;48.792;9.164;2023-03-31T13:15:27;6.10;;;2.03;;
151;SDS011;68;48.792;9.164;2023-03-31T13:17:57;5.38;;;2.30;;
151;SDS011;68;48.792;9.164;2023-03-31T13:20:34;4.25;;;1.70;;
151;SDS011;68;48.792;9.164;2023-03-31T13:23:06;3.85;;;1.75;;
151;SDS011;68;48.792;9.164;2023-03-31T13:25:44;7.68;;;2.00;;
151;SDS011;68;48.792;9.164;2023-03-31T13:28:17;6.05;;;1.70;;
151;SDS011;68;48.792;9.164;2023-03-31T13:31:09;3.97;;;2.00;;
151;SDS011;68;48.792;9.164;2023-03-31T13:33:47;3.22;;;1.75;;
151;SDS011;68;48.792;9.164;2023-03-31T13:39:42;3.35;;;1.95;;
151;SDS011;68;48.792;9.164;2023-03-31T13:45:21;2.53;;;1.70;;
151;SDS011;68;48.792;9.164;2023-03-31T13:48:08;2.28;;;1.80;;
151;SDS011;68;48.792;9.164;2023-03-31T13:53:56;1.98;;;1.73;;
151;SDS011;68;48.792;9.164;2023-03-31T13:57:03;3.25;;;1.70;;
151;SDS011;68;48.792;9.164;2023-03-31T14:02:48;3.15;;;1.77;;
151;SDS011;68;48.792;9.164;2023-03-31T14:05:32;13.85;;;2.38;;
151;SDS011;68;48.792;9.164;2023-03-31T14:08:01;4.07;;;1.90;;
151;SDS011;68;48.792;9.164;2023-03-31T14:10:33;2.20;;;1.73;;
151;SDS011;68;48.792;9.164;2023-03-31T14:13:05;2.60;;;1.75;;
151;SDS011;68;48.792;9.164;2023-03-31T14:15:33;1.92;;;1.67;;
151;SDS011;68;48.792;9.164;2023-03-31T14:18:02;2.92;;;1.60;;
151;SDS011;68;48.792;9.164;2023-03-31T14:20:32;2.75;;;2.00;;
151;SDS011;68;48.792;9.164;2023-03-31T14:23:20;2.45;;;1.60;;
151;SDS011;68;48.792;9.164;2023-03-31T14:26:02;2.00;;;1.50;;
151;SDS011;68;48.792;9.164;2023-03-31T14:28:35;3.35;;;1.75;;
151;SDS011;68;48.792;9.164;2023-03-31T14:31:22;2.78;;;1.75;;
151;SDS011;68;48.792;9.164;2023-03-31T14:34:07;3.35;;;1.50;;
151;SDS011;68;48.792;9.164;2023-03-31T14:36:46;2.15;;;1.85;;
151;SDS011;68;48.792;9.164;2023-03-31T14:39:22;3.45;;;2.08;;
151;SDS011;68;48.792;9.164;2023-03-31T14:41:54;2.95;;;2.15;;
151;SDS011;68;48.792;9.164;2023-03-31T14:44:24;2.70;;;1.70;;
151;SDS011;68;48.792;9.164;2023-03-31T14:46:54;2.63;;;1.63;;
151;SDS011;68;48.792;9.164;2023-03-31T14:49:24;2.25;;;1.75;;
151;SDS011;68;48.792;9.164;2023-03-31T14:51:52;2.92;;;2.03;;
151;SDS011;68;48.792;9.164;2023-03-31T14:54:23;4.05;;;1.90;;
151;SDS011;68;48.792;9.164;2023-03-31T14:56:51;4.35;;;2.05;;
151;SDS011;68;48.792;9.164;2023-03-31T14:59:23;4.35;;;1.88;;
151;SDS011;68;48.792;9.164;2023-03-31T15:01:53;3.35;;;1.95;;
151;SDS011;68;48.792;9.164;2023-03-31T15:04:23;3.58;;;2.05;;
151;SDS011;68;48.792;9.164;2023-03-31T15:06:53;2.78;;;1.77;;
151;SDS011;68;48.792;9.164;2023-03-31T15:09:20;1.95;;;1.70;;
151;SDS011;68;48.792;9.164;2023-03-31T15:11:54;3.75;;;2.03;;
151;SDS011;68;48.792;9.164;2023-03-31T15:14:26;4.25;;;2.20;;
151;SDS011;68;48.792;9.164;2023-03-31T15:16:54;3.15;;;1.88;;
151;SDS011;68;48.792;9.164;2023-03-31T15:19:22;2.55;;;1.65;;
151;SDS011;68;48.792;9.164;2023-03-31T15:21:53;3.25;;;1.80;;
151;SDS011;68;48.792;9.164;2023-03-31T15:24:21;5.82;;;1.85;;
151;SDS011;68;48.792;9.164;2023-03-31T15:26:50;8.18;;;2.15;;
151;SDS011;68;48.792;9.164;2023-03-31T15:29:21;3.65;;;1.95;;
151;SDS011;68;48.792;9.164;2023-03-31T15:31:54;3.67;;;1.90;;
151;SDS011;68;48.792;9.164;2023-03-31T15:34:23;5.15;;;2.05;;
151;SDS011;68;48.792;9.164;2023-03-31T15:36:53;1.92;;;1.70;;
151;SDS011;68;48.792;9.164;2023-03-31T15:39:20;3.85;;;2.03;;
151;SDS011;68;48.792;9.164;2023-03-31T15:41:48;3.05;;;1.70;;
151;SDS011;68;48.792;9.164;2023-03-31T15:44:34;3.40;;;2.00;;
151;SDS011;68;48.792;9.164;2023-03-31T15:47:05;6.38;;;2.22;;
151;SDS011;68;48.792;9.164;2023-03-31T15:49:33;5.13;;;2.50;;
151;SDS011;68;48.792;9.164;2023-03-31T15:52:01;2.33;;;2.20;;
151;SDS011;68;48.792;9.164;2023-03-31T15:54:28;4.75;;;1.90;;
151;SDS011;68;48.792;9.164;2023-03-31T15:56:59;3.65;;;2.20;;
151;SDS011;68;48.792;9.164;2023-03-31T15:59:26;3.58;;;2.05;;
151;SDS011;68;48.792;9.164;2023-03-31T16:01:56;4.93;;;2.28;;
151;SDS011;68;48.792;9.164;2023-03-31T16:04:28;8.88;;;3.97;;
151;SDS011;68;48.792;9.164;2023-03-31T16:06:57;4.70;;;2.10;;
151;SDS011;68;48.792;9.164;2023-03-31T16:09:36;5.35;;;2.28;;
151;SDS011;68;48.792;9.164;2023-03-31T16:12:09;5.45;;;2.60;;
151;SDS011;68;48.792;9.164;2023-03-31T16:14:42;6.03;;;3.58;;
151;SDS011;68;48.792;9.164;2023-03-31T16:17:17;5.45;;;2.15;;
151;SDS011;68;48.792;9.164;2023-03-31T16:19:48;2.95;;;1.88;;
151;SDS011;68;48.792;9.164;2023-03-31T16:22:18;3.65;;;1.90;;
151;SDS011;68;48.792;9.164;2023-03-31T16:24:48;4.20;;;2.10;;
151;SDS011;68;48.792;9.164;2023-03-31T16:27:15;3.15;;;2.20;;
151;SDS011;68;48.792;9.164;2023-03-31T16:29:42;4.30;;;2.35;;
151;SDS011;68;48.792;9.164;2023-03-31T16:32:10;5.53;;;1.98;;
151;SDS011;68;48.792;9.164;2023-03-31T16:34:52;4.80;;;2.00;;
151;SDS011;68;48.792;9.164;2023-03-31T16:37:20;3.33;;;1.88;;
151;SDS011;68;48.792;9.164;2023-03-31T16:39:47;3.17;;;2.00;;
151;SDS011;68;48.792;9.164;2023-03-31T16:42:14;3.92;;;2.08;;
151;SDS011;68;48.792;9.164;2023-03-31T16:44:41;5.03;;;2.05;;
151;SDS011;68;48.792;9.164;2023-03-31T16:47:08;2.25;;;1.75;;
151;SDS011;68;48.792;9.164;2023-03-31T16:49:35;2.22;;;1.90;;
151;SDS011;68;48.792;9.164;2023-03-31T16:52:03;2.65;;;1.80;;
151;SDS011;68;48.792;9.164;2023-03-31T16:54:30;5.03;;;1.98;;